sensor_id;sensor_type;location;lat;lon;timestamp;P1;durP1;ratioP1;P2;durP2;ratioP2
52057;SDS011;38063;53.210;6.504;2023-01-08T00:01:42;5.07;;;3.20;;
52057;SDS011;38063;53.210;6.504;2023-01-08T00:04:08;5.63;;;3.80;;
52057;SDS011;38063;53.210;6.504;2023-01-08T00:06:43;5.45;;;2.97;;
52057;SDS011;38063;53.210;6.504;2023-01-08T00:09:09;4.60;;;3.30;;
52057;SDS011;38063;53.210;6.504;2023-01-08T00:11:36;5.10;;;2.95;;
52057;SDS011;38063;53.210;6.504;2023-01-08T00:14:02;4.13;;;2.92;;
52057;SDS011;38063;53.210;6.504;2023-01-08T00:16:28;6.13;;;3.40;;
52057;SDS011;38063;53.210;6.504;2023-01-08T00:18:54;7.22;;;3.45;;
52057;SDS011;38063;53.210;6.504;2023-01-08T00:21:20;7.68;;;2.67;;
52057;SDS011;38063;53.210;6.504;2023-01-08T00:23:45;5.18;;;3.00;;
52057;SDS011;38063;53.210;6.504;2023-01-08T00:26:11;3.55;;;2.92;;
52057;SDS011;38063;53.210;6.504;2023-01-08T00:28:38;4.60;;;3.13;;
52057;SDS011;38063;53.210;6.504;2023-01-08T00:31:08;6.68;;;3.03;;
52057;SDS011;38063;53.210;6.504;2023-01-08T00:33:35;4.22;;;2.72;;
52057;SDS011;38063;53.210;6.504;2023-01-08T00:36:08;3.72;;;2.53;;
52057;SDS011;38063;53.210;6.504;2023-01-08T00:38:36;5.35;;;2.70;;
52057;SDS011;38063;53.210;6.504;2023-01-08T00:41:02;4.82;;;2.67;;
52057;SDS011;38063;53.210;6.504;2023-01-08T00:43:28;6.90;;;3.08;;
52057;SDS011;38063;53.210;6.504;2023-01-08T00:45:54;4.70;;;3.00;;
52057;SDS011;38063;53.210;6.504;2023-01-08T00:48:20;5.50;;;2.90;;
52057;SDS011;38063;53.210;6.504;2023-01-08T00:50:49;4.30;;;2.90;;
52057;SDS011;38063;53.210;6.504;2023-01-08T00:53:16;4.93;;;3.08;;
52057;SDS011;38063;53.210;6.504;2023-01-08T00:55:45;4.75;;;3.03;;
52057;SDS011;38063;53.210;6.504;2023-01-08T00:58:11;5.57;;;3.20;;
52057;SDS011;38063;53.210;6.504;2023-01-08T01:00:38;5.05;;;2.65;;
52057;SDS011;38063;53.210;6.504;2023-01-08T01:03:04;4.70;;;2.63;;
52057;SDS011;38063;53.210;6.504;2023-01-08T01:05:29;6.85;;;2.92;;
52057;SDS011;38063;53.210;6.504;2023-01-08T01:07:55;7.20;;;3.03;;
52057;SDS011;38063;53.210;6.504;2023-01-08T01:10:22;6.93;;;3.17;;
52057;SDS011;38063;53.210;6.504;2023-01-08T01:12:47;5.07;;;2.78;;
52057;SDS011;38063;53.210;6.504;2023-01-08T01:15:14;4.65;;;2.75;;
52057;SDS011;38063;53.210;6.504;2023-01-08T01:17:42;4.28;;;2.70;;
52057;SDS011;38063;53.210;6.504;2023-01-08T01:20:10;3.83;;;2.25;;
52057;SDS011;38063;53.210;6.504;2023-01-08T01:22:39;4.38;;;2.35;;
52057;SDS011;38063;53.210;6.504;2023-01-08T01:25:04;6.47;;;2.38;;
52057;SDS011;38063;53.210;6.504;2023-01-08T01:27:30;4.70;;;2.78;;
52057;SDS011;38063;53.210;6.504;2023-01-08T01:29:56;5.95;;;2.58;;
52057;SDS011;38063;53.210;6.504;2023-01-08T01:32:23;5.80;;;2.60;;
52057;SDS011;38063;53.210;6.504;2023-01-08T01:34:48;5.50;;;2.60;;
52057;SDS011;38063;53.210;6.504;2023-01-08T01:37:14;6.60;;;2.13;;
52057;SDS011;38063;53.210;6.504;2023-01-08T01:39:40;3.58;;;2.38;;
52057;SDS011;38063;53.210;6.504;2023-01-08T01:42:14;4.95;;;2.42;;
52057;SDS011;38063;53.210;6.504;2023-01-08T01:45:00;6.70;;;2.55;;
52057;SDS011;38063;53.210;6.504;2023-01-08T01:47:29;4.65;;;2.30;;
52057;SDS011;38063;53.210;6.504;2023-01-08T01:49:59;5.07;;;2.80;;
52057;SDS011;38063;53.210;6.504;2023-01-08T01:53:00;4.45;;;2.17;;
52057;SDS011;38063;53.210;6.504;2023-01-08T01:55:34;6.63;;;2.63;;
52057;SDS011;38063;53.210;6.504;2023-01-08T02:00:37;3.65;;;2.80;;
52057;SDS011;38063;53.210;6.504;2023-01-08T02:03:03;6.22;;;2.80;;
52057;SDS011;38063;53.210;6.504;2023-01-08T02:08:33;5.88;;;2.47;;
52057;SDS011;38063;53.210;6.504;2023-01-08T02:11:05;7.22;;;2.75;;
52057;SDS011;38063;53.210;6.504;2023-01-08T02:13:36;7.57;;;2.35;;
52057;SDS011;38063;53.210;6.504;2023-01-08T02:16:07;5.15;;;2.28;;
52057;SDS011;38063;53.210;6.504;2023-01-08T02:18:46;9.45;;;2.25;;
52057;SDS011;38063;53.210;6.504;2023-01-08T02:27:16;9.35;;;2.00;;
52057;SDS011;38063;53.210;6.504;2023-01-08T02:29:44;5.43;;;1.88;;
52057;SDS011;38063;53.210;6.504;2023-01-08T02:32:11;6.35;;;1.92;;
52057;SDS011;38063;53.210;6.504;2023-01-08T02:34:37;8.73;;;2.10;;
52057;SDS011;38063;53.210;6.504;2023-01-08T02:37:03;9.18;;;2.17;;
52057;SDS011;38063;53.210;6.504;2023-01-08T02:47:53;6.88;;;1.90;;
52057;SDS011;38063;53.210;6.504;2023-01-08T02:50:44;13.23;;;2.30;;
52057;SDS011;38063;53.210;6.504;2023-01-08T02:53:24;10.35;;;1.73;;
52057;SDS011;38063;53.210;6.504;2023-01-08T02:56:14;8.77;;;2.10;;
52057;SDS011;38063;53.210;6.504;2023-01-08T02:58:40;13.35;;;2.00;;
52057;SDS011;38063;53.210;6.504;2023-01-08T03:01:09;16.75;;;3.03;;
52057;SDS011;38063;53.210;6.504;2023-01-08T03:03:37;9.50;;;1.85;;
52057;SDS011;38063;53.210;6.504;2023-01-08T03:06:12;10.40;;;2.35;;
52057;SDS011;38063;53.210;6.504;2023-01-08T03:08:40;11.25;;;1.85;;
52057;SDS011;38063;53.210;6.504;2023-01-08T03:11:11;11.45;;;2.17;;
52057;SDS011;38063;53.210;6.504;2023-01-08T03:16:08;9.35;;;2.22;;
52057;SDS011;38063;53.210;6.504;2023-01-08T03:18:48;10.07;;;2.28;;
52057;SDS011;38063;53.210;6.504;2023-01-08T03:21:16;13.88;;;2.15;;
52057;SDS011;38063;53.210;6.504;2023-01-08T03:23:46;12.32;;;1.90;;
52057;SDS011;38063;53.210;6.504;2023-01-08T03:26:13;8.10;;;1.63;;
52057;SDS011;38063;53.210;6.504;2023-01-08T03:28:43;12.60;;;2.17;;
52057;SDS011;38063;53.210;6.504;2023-01-08T03:31:13;8.57;;;1.90;;
52057;SDS011;38063;53.210;6.504;2023-01-08T03:33:41;11.70;;;2.28;;
52057;SDS011;38063;53.210;6.504;2023-01-08T03:36:10;8.15;;;1.73;;
52057;SDS011;38063;53.210;6.504;2023-01-08T03:38:44;10.45;;;2.35;;
52057;SDS011;38063;53.210;6.504;2023-01-08T03:41:20;9.85;;;2.10;;
52057;SDS011;38063;53.210;6.504;2023-01-08T03:43:48;8.98;;;2.28;;
52057;SDS011;38063;53.210;6.504;2023-01-08T03:46:19;13.68;;;2.42;;
52057;SDS011;38063;53.210;6.504;2023-01-08T03:48:47;13.65;;;3.45;;
52057;SDS011;38063;53.210;6.504;2023-01-08T03:51:14;12.88;;;1.88;;
52057;SDS011;38063;53.210;6.504;2023-01-08T03:53:39;9.15;;;2.55;;
52057;SDS011;38063;53.210;6.504;2023-01-08T03:56:05;11.88;;;2.13;;
52057;SDS011;38063;53.210;6.504;2023-01-08T03:58:31;8.25;;;2.33;;
52057;SDS011;38063;53.210;6.504;2023-01-08T04:00:57;6.45;;;1.60;;
52057;SDS011;38063;53.210;6.504;2023-01-08T04:03:22;10.60;;;2.53;;
52057;SDS011;38063;53.210;6.504;2023-01-08T04:05:48;7.22;;;1.70;;
52057;SDS011;38063;53.210;6.504;2023-01-08T04:08:14;9.32;;;2.20;;
52057;SDS011;38063;53.210;6.504;2023-01-08T04:10:40;11.23;;;2.30;;
52057;SDS011;38063;53.210;6.504;2023-01-08T04:13:05;10.48;;;2.17;;
52057;SDS011;38063;53.210;6.504;2023-01-08T04:15:31;5.60;;;1.90;;
52057;SDS011;38063;53.210;6.504;2023-01-08T04:17:57;7.72;;;2.30;;
52057;SDS011;38063;53.210;6.504;2023-01-08T04:20:23;9.77;;;2.40;;
52057;SDS011;38063;53.210;6.504;2023-01-08T04:22:48;6.80;;;1.67;;
52057;SDS011;38063;53.210;6.504;2023-01-08T04:25:14;7.03;;;1.95;;
52057;SDS011;38063;53.210;6.504;2023-01-08T04:27:40;8.38;;;1.88;;
52057;SDS011;38063;53.210;6.504;2023-01-08T04:30:05;7.32;;;1.80;;
52057;SDS011;38063;53.210;6.504;2023-01-08T04:32:32;13.75;;;2.00;;
52057;SDS011;38063;53.210;6.504;2023-01-08T04:34:57;5.80;;;2.00;;
52057;SDS011;38063;53.210;6.504;2023-01-08T04:37:23;10.23;;;2.72;;
52057;SDS011;38063;53.210;6.504;2023-01-08T04:39:49;5.80;;;2.17;;
52057;SDS011;38063;53.210;6.504;2023-01-08T04:42:14;8.68;;;2.58;;
52057;SDS011;38063;53.210;6.504;2023-01-08T04:44:40;7.80;;;2.03;;
52057;SDS011;38063;53.210;6.504;2023-01-08T04:47:05;8.38;;;2.05;;
52057;SDS011;38063;53.210;6.504;2023-01-08T04:49:31;7.53;;;2.15;;
52057;SDS011;38063;53.210;6.504;2023-01-08T04:51:57;8.45;;;2.88;;
52057;SDS011;38063;53.210;6.504;2023-01-08T04:54:22;5.63;;;2.58;;
52057;SDS011;38063;53.210;6.504;2023-01-08T04:56:51;10.50;;;2.40;;
52057;SDS011;38063;53.210;6.504;2023-01-08T04:59:17;5.07;;;2.22;;
52057;SDS011;38063;53.210;6.504;2023-01-08T05:01:43;4.72;;;2.40;;
52057;SDS011;38063;53.210;6.504;2023-01-08T05:04:08;7.47;;;2.58;;
52057;SDS011;38063;53.210;6.504;2023-01-08T05:06:35;10.02;;;2.70;;
52057;SDS011;38063;53.210;6.504;2023-01-08T05:09:01;7.85;;;2.38;;
52057;SDS011;38063;53.210;6.504;2023-01-08T05:11:27;5.03;;;2.45;;
52057;SDS011;38063;53.210;6.504;2023-01-08T05:13:53;7.97;;;2.55;;
52057;SDS011;38063;53.210;6.504;2023-01-08T05:16:19;5.93;;;2.60;;
52057;SDS011;38063;53.210;6.504;2023-01-08T05:18:45;7.03;;;2.58;;
52057;SDS011;38063;53.210;6.504;2023-01-08T05:21:11;6.30;;;2.65;;
52057;SDS011;38063;53.210;6.504;2023-01-08T05:23:37;7.72;;;2.80;;
52057;SDS011;38063;53.210;6.504;2023-01-08T05:26:05;5.93;;;2.75;;
52057;SDS011;38063;53.210;6.504;2023-01-08T05:28:31;7.93;;;2.90;;
52057;SDS011;38063;53.210;6.504;2023-01-08T05:30:58;5.88;;;2.30;;
52057;SDS011;38063;53.210;6.504;2023-01-08T05:33:24;7.68;;;2.90;;
52057;SDS011;38063;53.210;6.504;2023-01-08T05:35:50;7.72;;;2.53;;
52057;SDS011;38063;53.210;6.504;2023-01-08T05:38:16;7.07;;;2.78;;
52057;SDS011;38063;53.210;6.504;2023-01-08T05:40:41;8.02;;;2.80;;
52057;SDS011;38063;53.210;6.504;2023-01-08T05:43:07;5.60;;;2.83;;
52057;SDS011;38063;53.210;6.504;2023-01-08T05:45:33;5.53;;;2.75;;
52057;SDS011;38063;53.210;6.504;2023-01-08T05:47:58;7.50;;;2.90;;
52057;SDS011;38063;53.210;6.504;2023-01-08T05:50:24;4.93;;;2.65;;
52057;SDS011;38063;53.210;6.504;2023-01-08T05:52:50;9.45;;;3.03;;
52057;SDS011;38063;53.210;6.504;2023-01-08T05:55:16;4.65;;;2.38;;
52057;SDS011;38063;53.210;6.504;2023-01-08T05:57:41;8.13;;;2.40;;
52057;SDS011;38063;53.210;6.504;2023-01-08T06:00:08;7.75;;;2.33;;
52057;SDS011;38063;53.210;6.504;2023-01-08T06:02:34;3.80;;;2.45;;
52057;SDS011;38063;53.210;6.504;2023-01-08T06:05:00;5.55;;;2.90;;
52057;SDS011;38063;53.210;6.504;2023-01-08T06:07:27;4.30;;;2.30;;
52057;SDS011;38063;53.210;6.504;2023-01-08T06:09:53;8.15;;;2.53;;
52057;SDS011;38063;53.210;6.504;2023-01-08T06:12:18;5.03;;;2.40;;
52057;SDS011;38063;53.210;6.504;2023-01-08T06:14:44;9.15;;;2.25;;
52057;SDS011;38063;53.210;6.504;2023-01-08T06:17:10;7.80;;;2.03;;
52057;SDS011;38063;53.210;6.504;2023-01-08T06:19:36;5.60;;;1.85;;
52057;SDS011;38063;53.210;6.504;2023-01-08T06:22:03;6.78;;;2.10;;
52057;SDS011;38063;53.210;6.504;2023-01-08T06:24:29;4.43;;;1.75;;
52057;SDS011;38063;53.210;6.504;2023-01-08T06:26:55;5.75;;;2.08;;
52057;SDS011;38063;53.210;6.504;2023-01-08T06:29:20;3.88;;;1.90;;
52057;SDS011;38063;53.210;6.504;2023-01-08T06:31:46;7.30;;;1.83;;
52057;SDS011;38063;53.210;6.504;2023-01-08T06:34:11;6.03;;;2.00;;
52057;SDS011;38063;53.210;6.504;2023-01-08T06:36:37;4.57;;;2.15;;
52057;SDS011;38063;53.210;6.504;2023-01-08T06:39:06;9.25;;;2.17;;
52057;SDS011;38063;53.210;6.504;2023-01-08T06:41:32;4.97;;;2.20;;
52057;SDS011;38063;53.210;6.504;2023-01-08T06:43:58;7.72;;;2.22;;
52057;SDS011;38063;53.210;6.504;2023-01-08T06:46:23;5.55;;;2.40;;
52057;SDS011;38063;53.210;6.504;2023-01-08T06:48:49;5.47;;;2.22;;
52057;SDS011;38063;53.210;6.504;2023-01-08T06:51:15;6.88;;;3.15;;
52057;SDS011;38063;53.210;6.504;2023-01-08T06:53:41;7.68;;;2.13;;
52057;SDS011;38063;53.210;6.504;2023-01-08T06:56:06;4.00;;;2.25;;
52057;SDS011;38063;53.210;6.504;2023-01-08T06:58:35;8.60;;;2.20;;
52057;SDS011;38063;53.210;6.504;2023-01-08T07:01:01;5.85;;;2.40;;
52057;SDS011;38063;53.210;6.504;2023-01-08T07:03:27;5.43;;;2.38;;
52057;SDS011;38063;53.210;6.504;2023-01-08T07:05:53;5.72;;;2.70;;
52057;SDS011;38063;53.210;6.504;2023-01-08T07:08:19;5.93;;;2.70;;
52057;SDS011;38063;53.210;6.504;2023-01-08T07:10:45;7.22;;;2.90;;
52057;SDS011;38063;53.210;6.504;2023-01-08T07:13:11;9.25;;;3.00;;
52057;SDS011;38063;53.210;6.504;2023-01-08T07:15:37;4.78;;;2.50;;
52057;SDS011;38063;53.210;6.504;2023-01-08T07:18:04;10.68;;;2.92;;
52057;SDS011;38063;53.210;6.504;2023-01-08T07:20:31;6.65;;;2.92;;
52057;SDS011;38063;53.210;6.504;2023-01-08T07:23:04;6.10;;;2.70;;
52057;SDS011;38063;53.210;6.504;2023-01-08T07:25:32;7.07;;;3.05;;
52057;SDS011;38063;53.210;6.504;2023-01-08T07:27:58;5.53;;;2.88;;
52057;SDS011;38063;53.210;6.504;2023-01-08T07:30:24;7.55;;;2.95;;
52057;SDS011;38063;53.210;6.504;2023-01-08T07:32:50;5.85;;;3.08;;
52057;SDS011;38063;53.210;6.504;2023-01-08T07:35:16;6.05;;;2.40;;
52057;SDS011;38063;53.210;6.504;2023-01-08T07:37:42;6.47;;;2.42;;
52057;SDS011;38063;53.210;6.504;2023-01-08T07:40:08;6.82;;;2.83;;
52057;SDS011;38063;53.210;6.504;2023-01-08T07:42:35;8.32;;;2.80;;
52057;SDS011;38063;53.210;6.504;2023-01-08T07:45:01;10.32;;;3.03;;
52057;SDS011;38063;53.210;6.504;2023-01-08T07:47:27;6.95;;;2.20;;
52057;SDS011;38063;53.210;6.504;2023-01-08T07:49:52;6.18;;;2.58;;
52057;SDS011;38063;53.210;6.504;2023-01-08T07:52:18;7.32;;;2.30;;
52057;SDS011;38063;53.210;6.504;2023-01-08T07:54:43;6.93;;;2.78;;
52057;SDS011;38063;53.210;6.504;2023-01-08T07:57:09;11.57;;;2.90;;
52057;SDS011;38063;53.210;6.504;2023-01-08T07:59:34;9.40;;;3.42;;
52057;SDS011;38063;53.210;6.504;2023-01-08T08:02:00;5.65;;;3.05;;
52057;SDS011;38063;53.210;6.504;2023-01-08T08:04:26;7.45;;;3.05;;
52057;SDS011;38063;53.210;6.504;2023-01-08T08:06:52;7.97;;;3.83;;
52057;SDS011;38063;53.210;6.504;2023-01-08T08:09:19;11.45;;;3.42;;
52057;SDS011;38063;53.210;6.504;2023-01-08T08:11:44;8.85;;;3.17;;
52057;SDS011;38063;53.210;6.504;2023-01-08T08:14:10;7.90;;;3.72;;
52057;SDS011;38063;53.210;6.504;2023-01-08T08:16:36;8.75;;;3.78;;
52057;SDS011;38063;53.210;6.504;2023-01-08T08:19:02;11.77;;;4.00;;
52057;SDS011;38063;53.210;6.504;2023-01-08T08:21:27;6.47;;;3.22;;
52057;SDS011;38063;53.210;6.504;2023-01-08T08:23:54;9.55;;;3.75;;
52057;SDS011;38063;53.210;6.504;2023-01-08T08:26:19;9.77;;;3.80;;
52057;SDS011;38063;53.210;6.504;2023-01-08T08:28:46;9.38;;;2.97;;
52057;SDS011;38063;53.210;6.504;2023-01-08T08:31:12;11.10;;;3.53;;
52057;SDS011;38063;53.210;6.504;2023-01-08T08:33:37;12.57;;;3.42;;
52057;SDS011;38063;53.210;6.504;2023-01-08T08:36:03;6.53;;;2.72;;
52057;SDS011;38063;53.210;6.504;2023-01-08T08:38:29;5.60;;;2.60;;
52057;SDS011;38063;53.210;6.504;2023-01-08T08:40:55;13.05;;;3.10;;
52057;SDS011;38063;53.210;6.504;2023-01-08T08:43:21;8.52;;;2.67;;
52057;SDS011;38063;53.210;6.504;2023-01-08T08:45:47;11.68;;;2.47;;
52057;SDS011;38063;53.210;6.504;2023-01-08T08:48:12;6.50;;;2.67;;
52057;SDS011;38063;53.210;6.504;2023-01-08T08:50:40;10.63;;;3.03;;
52057;SDS011;38063;53.210;6.504;2023-01-08T08:53:05;9.40;;;2.53;;
52057;SDS011;38063;53.210;6.504;2023-01-08T08:55:31;10.43;;;2.42;;
52057;SDS011;38063;53.210;6.504;2023-01-08T08:58:05;9.23;;;2.40;;
52057;SDS011;38063;53.210;6.504;2023-01-08T09:00:36;11.15;;;2.50;;
52057;SDS011;38063;53.210;6.504;2023-01-08T09:03:06;10.90;;;2.17;;
52057;SDS011;38063;53.210;6.504;2023-01-08T09:05:35;10.27;;;2.47;;
52057;SDS011;38063;53.210;6.504;2023-01-08T09:08:01;10.77;;;2.70;;
52057;SDS011;38063;53.210;6.504;2023-01-08T09:10:26;7.57;;;2.10;;
52057;SDS011;38063;53.210;6.504;2023-01-08T09:12:52;10.93;;;2.10;;
52057;SDS011;38063;53.210;6.504;2023-01-08T09:15:18;9.60;;;2.58;;
52057;SDS011;38063;53.210;6.504;2023-01-08T09:17:44;5.50;;;1.92;;
52057;SDS011;38063;53.210;6.504;2023-01-08T09:20:16;11.30;;;2.38;;
52057;SDS011;38063;53.210;6.504;2023-01-08T09:22:41;8.45;;;2.28;;
52057;SDS011;38063;53.210;6.504;2023-01-08T09:25:07;9.68;;;2.45;;
52057;SDS011;38063;53.210;6.504;2023-01-08T09:27:33;8.30;;;2.55;;
52057;SDS011;38063;53.210;6.504;2023-01-08T09:29:58;8.85;;;2.53;;
52057;SDS011;38063;53.210;6.504;2023-01-08T09:32:24;4.60;;;2.47;;
52057;SDS011;38063;53.210;6.504;2023-01-08T09:34:49;7.32;;;1.80;;
52057;SDS011;38063;53.210;6.504;2023-01-08T09:37:15;7.75;;;2.20;;
52057;SDS011;38063;53.210;6.504;2023-01-08T09:39:41;7.38;;;2.00;;
52057;SDS011;38063;53.210;6.504;2023-01-08T09:42:06;6.90;;;1.60;;
52057;SDS011;38063;53.210;6.504;2023-01-08T09:44:36;6.50;;;1.75;;
52057;SDS011;38063;53.210;6.504;2023-01-08T09:47:19;8.98;;;1.95;;
52057;SDS011;38063;53.210;6.504;2023-01-08T09:49:53;7.72;;;2.25;;
52057;SDS011;38063;53.210;6.504;2023-01-08T09:52:23;5.90;;;1.92;;
52057;SDS011;38063;53.210;6.504;2023-01-08T09:54:48;9.98;;;1.65;;
52057;SDS011;38063;53.210;6.504;2023-01-08T09:57:18;6.90;;;1.70;;
52057;SDS011;38063;53.210;6.504;2023-01-08T09:59:45;8.52;;;1.52;;
52057;SDS011;38063;53.210;6.504;2023-01-08T10:02:16;7.53;;;1.88;;
52057;SDS011;38063;53.210;6.504;2023-01-08T10:04:52;7.53;;;1.80;;
52057;SDS011;38063;53.210;6.504;2023-01-08T10:07:21;6.57;;;1.83;;
52057;SDS011;38063;53.210;6.504;2023-01-08T10:09:49;9.55;;;1.90;;
52057;SDS011;38063;53.210;6.504;2023-01-08T10:12:26;7.15;;;1.58;;
52057;SDS011;38063;53.210;6.504;2023-01-08T10:14:54;8.65;;;1.83;;
52057;SDS011;38063;53.210;6.504;2023-01-08T10:17:29;14.10;;;1.95;;
52057;SDS011;38063;53.210;6.504;2023-01-08T10:20:01;7.85;;;1.70;;
52057;SDS011;38063;53.210;6.504;2023-01-08T10:22:34;7.97;;;1.90;;
52057;SDS011;38063;53.210;6.504;2023-01-08T10:25:33;9.90;;;1.92;;
52057;SDS011;38063;53.210;6.504;2023-01-08T10:27:59;7.78;;;1.75;;
52057;SDS011;38063;53.210;6.504;2023-01-08T10:32:55;11.40;;;1.85;;
52057;SDS011;38063;53.210;6.504;2023-01-08T10:35:33;7.53;;;1.70;;
52057;SDS011;38063;53.210;6.504;2023-01-08T10:38:01;12.40;;;1.83;;
52057;SDS011;38063;53.210;6.504;2023-01-08T10:40:40;7.65;;;1.63;;
52057;SDS011;38063;53.210;6.504;2023-01-08T10:43:16;13.95;;;2.00;;
52057;SDS011;38063;53.210;6.504;2023-01-08T10:45:53;8.30;;;1.75;;
52057;SDS011;38063;53.210;6.504;2023-01-08T10:50:45;7.23;;;2.00;;
52057;SDS011;38063;53.210;6.504;2023-01-08T10:53:25;9.65;;;1.92;;
52057;SDS011;38063;53.210;6.504;2023-01-08T10:55:56;7.07;;;1.90;;
52057;SDS011;38063;53.210;6.504;2023-01-08T10:58:27;4.68;;;1.60;;
52057;SDS011;38063;53.210;6.504;2023-01-08T11:00:54;8.80;;;1.70;;
52057;SDS011;38063;53.210;6.504;2023-01-08T11:03:32;9.65;;;2.00;;
52057;SDS011;38063;53.210;6.504;2023-01-08T11:05:58;6.82;;;1.60;;
52057;SDS011;38063;53.210;6.504;2023-01-08T11:08:23;10.13;;;2.00;;
52057;SDS011;38063;53.210;6.504;2023-01-08T11:10:53;10.00;;;2.22;;
52057;SDS011;38063;53.210;6.504;2023-01-08T11:13:20;12.25;;;1.83;;
52057;SDS011;38063;53.210;6.504;2023-01-08T11:15:46;10.27;;;2.33;;
52057;SDS011;38063;53.210;6.504;2023-01-08T11:18:29;13.90;;;2.25;;
52057;SDS011;38063;53.210;6.504;2023-01-08T11:21:06;12.23;;;2.50;;
52057;SDS011;38063;53.210;6.504;2023-01-08T11:23:34;7.68;;;1.90;;
52057;SDS011;38063;53.210;6.504;2023-01-08T11:26:04;9.75;;;2.15;;
52057;SDS011;38063;53.210;6.504;2023-01-08T11:31:13;12.93;;;1.85;;
52057;SDS011;38063;53.210;6.504;2023-01-08T11:33:51;10.80;;;1.80;;
52057;SDS011;38063;53.210;6.504;2023-01-08T11:36:34;10.05;;;2.28;;
52057;SDS011;38063;53.210;6.504;2023-01-08T11:39:04;9.93;;;2.42;;
52057;SDS011;38063;53.210;6.504;2023-01-08T11:52:28;12.65;;;2.60;;
52057;SDS011;38063;53.210;6.504;2023-01-08T12:11:29;11.85;;;2.28;;
52057;SDS011;38063;53.210;6.504;2023-01-08T12:19:33;12.48;;;2.60;;
52057;SDS011;38063;53.210;6.504;2023-01-08T12:22:09;9.88;;;1.83;;
52057;SDS011;38063;53.210;6.504;2023-01-08T12:24:51;8.48;;;1.85;;
52057;SDS011;38063;53.210;6.504;2023-01-08T12:27:50;7.72;;;2.00;;
52057;SDS011;38063;53.210;6.504;2023-01-08T12:33:46;6.18;;;2.05;;
52057;SDS011;38063;53.210;6.504;2023-01-08T12:36:34;11.07;;;2.88;;
52057;SDS011;38063;53.210;6.504;2023-01-08T12:39:07;9.20;;;2.35;;
52057;SDS011;38063;53.210;6.504;2023-01-08T12:41:36;10.43;;;2.50;;
52057;SDS011;38063;53.210;6.504;2023-01-08T12:44:08;8.18;;;2.47;;
52057;SDS011;38063;53.210;6.504;2023-01-08T12:46:37;14.43;;;2.80;;
52057;SDS011;38063;53.210;6.504;2023-01-08T12:49:06;8.60;;;2.38;;
52057;SDS011;38063;53.210;6.504;2023-01-08T12:57:00;9.45;;;2.13;;
52057;SDS011;38063;53.210;6.504;2023-01-08T12:59:47;12.05;;;2.42;;
52057;SDS011;38063;53.210;6.504;2023-01-08T13:02:36;10.45;;;2.25;;
52057;SDS011;38063;53.210;6.504;2023-01-08T13:07:44;9.60;;;2.15;;
52057;SDS011;38063;53.210;6.504;2023-01-08T13:12:56;12.02;;;2.53;;
52057;SDS011;38063;53.210;6.504;2023-01-08T13:15:23;7.82;;;1.95;;
52057;SDS011;38063;53.210;6.504;2023-01-08T13:18:00;10.52;;;2.50;;
52057;SDS011;38063;53.210;6.504;2023-01-08T13:20:41;9.68;;;2.10;;
52057;SDS011;38063;53.210;6.504;2023-01-08T13:23:17;6.93;;;2.03;;
52057;SDS011;38063;53.210;6.504;2023-01-08T13:25:52;10.90;;;2.00;;
52057;SDS011;38063;53.210;6.504;2023-01-08T13:31:07;10.93;;;2.10;;
52057;SDS011;38063;53.210;6.504;2023-01-08T13:33:48;12.30;;;2.63;;
52057;SDS011;38063;53.210;6.504;2023-01-08T13:36:26;9.40;;;2.40;;
52057;SDS011;38063;53.210;6.504;2023-01-08T13:41:34;13.27;;;2.17;;
52057;SDS011;38063;53.210;6.504;2023-01-08T13:44:26;13.07;;;2.13;;
52057;SDS011;38063;53.210;6.504;2023-01-08T13:47:03;11.55;;;1.95;;
52057;SDS011;38063;53.210;6.504;2023-01-08T13:49:43;7.53;;;1.60;;
52057;SDS011;38063;53.210;6.504;2023-01-08T13:52:26;8.07;;;2.40;;
52057;SDS011;38063;53.210;6.504;2023-01-08T13:54:54;8.20;;;2.00;;
52057;SDS011;38063;53.210;6.504;2023-01-08T13:57:20;7.38;;;2.05;;
52057;SDS011;38063;53.210;6.504;2023-01-08T14:02:20;11.30;;;1.90;;
52057;SDS011;38063;53.210;6.504;2023-01-08T14:04:50;10.18;;;2.00;;
52057;SDS011;38063;53.210;6.504;2023-01-08T14:07:16;8.82;;;1.70;;
52057;SDS011;38063;53.210;6.504;2023-01-08T14:09:42;10.32;;;2.00;;
52057;SDS011;38063;53.210;6.504;2023-01-08T14:12:15;11.68;;;2.45;;
52057;SDS011;38063;53.210;6.504;2023-01-08T14:14:48;9.88;;;2.22;;
52057;SDS011;38063;53.210;6.504;2023-01-08T14:17:17;10.90;;;2.13;;
52057;SDS011;38063;53.210;6.504;2023-01-08T14:19:45;8.18;;;1.85;;
52057;SDS011;38063;53.210;6.504;2023-01-08T14:22:22;7.38;;;2.00;;
52057;SDS011;38063;53.210;6.504;2023-01-08T14:24:53;7.88;;;2.03;;
52057;SDS011;38063;53.210;6.504;2023-01-08T14:27:24;6.93;;;2.15;;
52057;SDS011;38063;53.210;6.504;2023-01-08T14:29:52;10.35;;;1.90;;
52057;SDS011;38063;53.210;6.504;2023-01-08T14:32:20;9.07;;;2.08;;
52057;SDS011;38063;53.210;6.504;2023-01-08T14:34:47;10.23;;;1.73;;
52057;SDS011;38063;53.210;6.504;2023-01-08T14:37:15;8.98;;;2.13;;
52057;SDS011;38063;53.210;6.504;2023-01-08T14:39:41;8.13;;;2.13;;
52057;SDS011;38063;53.210;6.504;2023-01-08T14:42:11;10.25;;;1.90;;
52057;SDS011;38063;53.210;6.504;2023-01-08T14:45:04;13.10;;;2.00;;
52057;SDS011;38063;53.210;6.504;2023-01-08T14:47:36;7.63;;;1.50;;
52057;SDS011;38063;53.210;6.504;2023-01-08T14:50:04;8.38;;;1.83;;
52057;SDS011;38063;53.210;6.504;2023-01-08T14:52:31;4.43;;;1.50;;
52057;SDS011;38063;53.210;6.504;2023-01-08T14:54:58;10.57;;;1.90;;
52057;SDS011;38063;53.210;6.504;2023-01-08T14:57:27;10.13;;;1.75;;
52057;SDS011;38063;53.210;6.504;2023-01-08T14:59:54;8.30;;;1.60;;
52057;SDS011;38063;53.210;6.504;2023-01-08T15:02:32;8.50;;;1.50;;
52057;SDS011;38063;53.210;6.504;2023-01-08T15:05:12;8.30;;;1.70;;
52057;SDS011;38063;53.210;6.504;2023-01-08T15:07:53;6.90;;;1.30;;
52057;SDS011;38063;53.210;6.504;2023-01-08T15:10:31;5.50;;;1.52;;
52057;SDS011;38063;53.210;6.504;2023-01-08T15:12:57;6.05;;;1.50;;
52057;SDS011;38063;53.210;6.504;2023-01-08T15:15:25;5.95;;;1.77;;
52057;SDS011;38063;53.210;6.504;2023-01-08T15:17:51;5.00;;;1.30;;
52057;SDS011;38063;53.210;6.504;2023-01-08T15:20:18;7.88;;;1.70;;
52057;SDS011;38063;53.210;6.504;2023-01-08T15:22:46;3.75;;;1.25;;
52057;SDS011;38063;53.210;6.504;2023-01-08T15:25:15;5.28;;;1.50;;
52057;SDS011;38063;53.210;6.504;2023-01-08T15:27:59;6.47;;;2.20;;
52057;SDS011;38063;53.210;6.504;2023-01-08T15:30:34;6.28;;;1.38;;
52057;SDS011;38063;53.210;6.504;2023-01-08T15:33:18;7.33;;;1.60;;
52057;SDS011;38063;53.210;6.504;2023-01-08T15:35:49;6.80;;;1.45;;
52057;SDS011;38063;53.210;6.504;2023-01-08T15:38:16;5.68;;;1.60;;
52057;SDS011;38063;53.210;6.504;2023-01-08T15:40:44;6.32;;;1.67;;
52057;SDS011;38063;53.210;6.504;2023-01-08T15:43:12;5.82;;;1.45;;
52057;SDS011;38063;53.210;6.504;2023-01-08T15:45:45;7.55;;;1.48;;
52057;SDS011;38063;53.210;6.504;2023-01-08T15:48:12;7.35;;;2.67;;
52057;SDS011;38063;53.210;6.504;2023-01-08T15:50:39;10.30;;;2.53;;
52057;SDS011;38063;53.210;6.504;2023-01-08T15:53:11;7.32;;;2.92;;
52057;SDS011;38063;53.210;6.504;2023-01-08T15:55:40;7.60;;;3.13;;
52057;SDS011;38063;53.210;6.504;2023-01-08T15:58:08;6.32;;;2.38;;
52057;SDS011;38063;53.210;6.504;2023-01-08T16:00:36;6.30;;;2.47;;
52057;SDS011;38063;53.210;6.504;2023-01-08T16:03:02;6.97;;;2.40;;
52057;SDS011;38063;53.210;6.504;2023-01-08T16:05:28;7.88;;;2.05;;
52057;SDS011;38063;53.210;6.504;2023-01-08T16:07:54;6.63;;;1.88;;
52057;SDS011;38063;53.210;6.504;2023-01-08T16:10:20;3.85;;;1.80;;
52057;SDS011;38063;53.210;6.504;2023-01-08T16:12:46;7.65;;;2.10;;
52057;SDS011;38063;53.210;6.504;2023-01-08T16:15:12;7.05;;;2.10;;
52057;SDS011;38063;53.210;6.504;2023-01-08T16:17:39;4.20;;;1.95;;
52057;SDS011;38063;53.210;6.504;2023-01-08T16:20:06;8.63;;;2.25;;
52057;SDS011;38063;53.210;6.504;2023-01-08T16:22:32;3.70;;;1.80;;